Home > Products > Valid Products > TAF

000
FTUS44 KOUN 301720
TAFSPS
TAF
KSPS 301720Z 3018/3118 28010KT P6SM SKC
     FM302000 36011KT P6SM SKC
     FM311400 01014G20KT P6SM SKC=



000
FTUS44 KOUN 301720
TAFWWR
TAF
KWWR 301720Z 3018/3118 36013G21KT P6SM SKC
     FM310000 01008KT P6SM SKC=



000
FTUS44 KOUN 301720
TAFGAG
TAF
KGAG 301720Z 3018/3118 01013G21KT P6SM SKC
     FM310000 02008KT P6SM SKC=



000
FTUS44 KOUN 301720
TAFOUN
TAF
KOUN 301720Z 3018/3118 33014G20KT P6SM SKC
     FM310000 35008KT P6SM SKC
     FM311200 36015G21KT P6SM SKC=



000
FTUS44 KOUN 301720
TAFPNC
TAF
KPNC 301720Z 3018/3118 34015G21KT P6SM SKC
     FM302300 36008KT P6SM SKC
     FM311400 01014G20KT P6SM SKC=



000
FTUS44 KOUN 301720
TAFOKC
TAF
KOKC 301720Z 3018/3118 33015G22KT P6SM SKC
     FM310000 36008KT P6SM SKC
     FM311200 36015G21KT P6SM SKC=



000
FTUS44 KOUN 301720
TAFLAW
TAF
KLAW 301720Z 3018/3118 30008KT P6SM SKC
     FM302000 36011KT P6SM SKC
     FM311300 02015G22KT P6SM SKC=



000
FTUS44 KOUN 301720
TAFHBR
TAF
KHBR 301720Z 3018/3118 01013G21KT P6SM SKC
     FM310000 02009KT P6SM SKC
     FM311200 03015G20KT P6SM SKC=



000
FTUS44 KOUN 301140 CCA
TAFPNC
TAF COR
KPNC 301140Z 3012/3112 00000KT P6SM SKC
      TEMPO 3012/3014 BKN040
     FM301800 34015G21KT P6SM SKC
     FM302300 33006KT P6SM SKC=



000
FTUS44 KOUN 301129
TAFOKC
TAF
KOKC 301129Z 3012/3112 16007KT P6SM SKC
     FM301900 33015G22KT P6SM BKN250
     FM302300 35008KT P6SM SKC=



000
FTUS44 KOUN 301129
TAFOUN
TAF
KOUN 301129Z 3012/3112 18005KT P6SM SKC
     FM301900 33015G22KT P6SM BKN250
     FM302300 35008KT P6SM SKC=



000
FTUS44 KOUN 301129
TAFLAW
TAF
KLAW 301129Z 3012/3112 00000KT P6SM SKC
     FM301900 36012G18KT P6SM SKC
     FM302300 36008KT P6SM SKC=



000
FTUS44 KOUN 301129
TAFGAG
TAF
KGAG 301129Z 3012/3112 28004KT P6SM SKC
     FM301700 36013G21KT P6SM SKC
     FM302300 36008KT P6SM SKC=



000
FTUS44 KOUN 301129
TAFWWR
TAF
KWWR 301129Z 3012/3112 24009KT P6SM SKC
     FM301700 36013G21KT P6SM SKC
     FM302300 36008KT P6SM SKC=



000
FTUS44 KOUN 301129
TAFSPS
TAF
KSPS 301129Z 3012/3112 17007KT P6SM SKC
     FM301900 33010G18KT P6SM SKC
     FM302300 36010KT P6SM SKC=



000
FTUS44 KOUN 301129
TAFPNC
TAF
KPNC 301129Z 3012/3112 00000KT P6SM SKC
     FM301800 34015G21KT P6SM SKC
     FM302300 33006KT P6SM SKC=



000
FTUS44 KOUN 301129
TAFHBR
TAF
KHBR 301129Z 3012/3112 20009KT P6SM SKC
     FM301900 01013G21KT P6SM SKC
     FM302300 01008KT P6SM SKC=



000
FTUS44 KOUN 300603 RRA
TAFLAW
TAF
KLAW 300603Z 3006/3106 15006KT P6SM SKC
     FM301500 27010KT P6SM SCT030
     FM301700 36012G18KT P6SM BKN035
     FM310000 36008KT P6SM SKC=



000
FTUS44 KOUN 300603 RRA
TAFPNC
TAF
KPNC 300603Z 3006/3106 18006KT P6SM SCT150
     FM301500 27010KT P6SM SKC
     FM301700 33012G18KT P6SM SKC
     FM310000 33006KT P6SM SKC=



000
FTUS44 KOUN 300603 RRA
TAFSPS
TAF
KSPS 300603Z 3006/3106 16007KT P6SM SKC
     FM301800 27010KT P6SM BKN025
     FM302100 34013G18KT P6SM BKN035
     FM310000 36010KT P6SM SKC=



000
FTUS44 KOUN 300603 RRA
TAFOUN
TAF
KOUN 300603Z 3006/3106 16007KT P6SM SKC
     FM301500 25014G20KT P6SM SCT030
     FM301900 33015G22KT P6SM BKN035
     FM310000 35006KT P6SM SKC=



000
FTUS44 KOUN 300603 RRA
TAFOKC
TAF
KOKC 300603Z 3006/3106 15007KT P6SM SKC
     FM301500 25014G20KT P6SM SCT030
     FM301900 33015G22KT P6SM BKN035
     FM310000 35008KT P6SM SKC=



000
FTUS44 KOUN 300603 RRA
TAFWWR
TAF
KWWR 300603Z 3006/3106 20012KT P6SM SKC
     FM300800 24010KT P6SM SKC
     FM301400 36013G18KT P6SM SKC
     FM310000 01010KT P6SM SKC=



000
FTUS44 KOUN 300603 RRA
TAFHBR
TAF
KHBR 300603Z 3006/3106 18011KT P6SM SKC
     FM301300 26010KT P6SM SKC
     FM301600 36012G18KT P6SM SKC
     FM310000 01008KT P6SM SKC=



000
FTUS44 KOUN 300603 RRA
TAFGAG
TAF
KGAG 300603Z 3006/3106 20012KT P6SM SKC
     FM301400 35013G18KT P6SM SKC
     FM310000 36008KT P6SM SKC=



000
FTUS44 KOUN 292320
TAFLAW
TAF
KLAW 292320Z 3000/3024 15008KT P6SM SKC
     FM301500 27010KT P6SM SCT030
     FM301700 36012G18KT P6SM BKN035=



000
FTUS44 KOUN 292320
TAFGAG
TAF
KGAG 292320Z 3000/3024 20012KT P6SM SKC
     FM301300 35013G18KT P6SM SKC=



000
FTUS44 KOUN 292320
TAFPNC
TAF
KPNC 292320Z 3000/3024 18006KT P6SM SKC
     FM301400 27010KT P6SM SKC
     FM301600 33012G18KT P6SM SKC=



000
FTUS44 KOUN 292320
TAFHBR
TAF
KHBR 292320Z 3000/3024 19011KT P6SM SKC
     FM301300 26010KT P6SM SKC
     FM301500 36012G18KT P6SM SKC=



000
FTUS44 KOUN 292320
TAFOUN
TAF
KOUN 292320Z 3000/3024 16007KT P6SM SKC
     FM301400 25014G20KT P6SM SCT030
     FM301800 33015G22KT P6SM BKN035=



000
FTUS44 KOUN 292320
TAFOKC
TAF
KOKC 292320Z 3000/3024 15007KT P6SM SKC
     FM301400 25014G20KT P6SM SCT030
     FM301800 33015G22KT P6SM BKN035=



000
FTUS44 KOUN 292320
TAFSPS
TAF
KSPS 292320Z 3000/3024 16007KT P6SM SKC
     FM301600 27010KT P6SM SCT025
     FM301800 34013G18KT P6SM BKN030=



000
FTUS44 KOUN 292320
TAFWWR
TAF
KWWR 292320Z 3000/3024 20012KT P6SM SKC
     FM300800 24010KT P6SM SKC
     FM301300 35013KT P6SM SKC=



000
FTUS44 KOUN 291733
TAFOKC
TAF
KOKC 291733Z 2918/3018 18007KT P6SM SKC=



000
FTUS44 KOUN 291733
TAFGAG
TAF
KGAG 291733Z 2918/3018 20012KT P6SM SKC
     FM301300 33013KT P6SM SKC=



000
FTUS44 KOUN 291733
TAFOUN
TAF
KOUN 291733Z 2918/3018 17007KT P6SM SKC=



000
FTUS44 KOUN 291733
TAFWWR
TAF
KWWR 291733Z 2918/3018 20012KT P6SM SKC
     FM301300 33013KT P6SM SKC=



000
FTUS44 KOUN 291733
TAFHBR
TAF
KHBR 291733Z 2918/3018 19011KT P6SM SKC
     FM301500 34012KT P6SM SKC=



000
FTUS44 KOUN 291733
TAFLAW
TAF
KLAW 291733Z 2918/3018 16008KT P6SM SKC
     FM301600 33011KT P6SM SKC=



000
FTUS44 KOUN 291733
TAFSPS
TAF
KSPS 291733Z 2918/3018 18007KT P6SM SKC=



000
FTUS44 KOUN 291733
TAFPNC
TAF
KPNC 291733Z 2918/3018 18006KT P6SM SKC
     FM301600 33012KT P6SM SKC=



000
FTUS44 KOUN 291120
TAFWWR
TAF
KWWR 291120Z 2912/3012 21008KT P6SM SKC
     FM291800 19011G16KT P6SM SKC
     FM292200 17011KT P6SM SKC=



000
FTUS44 KOUN 291120
TAFOKC
TAF
KOKC 291120Z 2912/3012 14008KT P6SM SKC=



000
FTUS44 KOUN 291120
TAFLAW
TAF
KLAW 291120Z 2912/3012 09005KT P6SM SKC
     FM291800 14008KT P6SM SKC=



000
FTUS44 KOUN 291120
TAFPNC
TAF
KPNC 291120Z 2912/3012 10007KT P6SM SKC=



000
FTUS44 KOUN 291120
TAFSPS
TAF
KSPS 291120Z 2912/3012 01005KT P6SM SKC
     FM291800 12007KT P6SM SKC=



000
FTUS44 KOUN 291120
TAFGAG
TAF
KGAG 291120Z 2912/3012 24004KT P6SM SKC
     FM291800 18012G17KT P6SM SKC
     FM292200 16011KT P6SM SKC=



000
FTUS44 KOUN 291120
TAFHBR
TAF
KHBR 291120Z 2912/3012 31005KT P6SM SKC
     FM291800 17011KT P6SM SKC=



000
FTUS44 KOUN 291120
TAFOUN
TAF
KOUN 291120Z 2912/3012 14008KT P6SM SKC=



000
FTUS44 KOUN 290520
TAFPNC
TAF
KPNC 290520Z 2906/3006 VRB03KT P6SM SKC
     FM291700 18007KT P6SM SKC=



000
FTUS44 KOUN 290520
TAFOKC
TAF
KOKC 290520Z 2906/3006 VRB03KT P6SM SKC
     FM291700 16007KT P6SM SKC=



000
FTUS44 KOUN 290520
TAFGAG
TAF
KGAG 290520Z 2906/3006 20005KT P6SM SKC
     FM291600 18010G15KT P6SM SKC=



000
FTUS44 KOUN 290520
TAFLAW
TAF
KLAW 290520Z 2906/3006 02004KT P6SM SKC
     FM291800 15008KT P6SM SKC=



000
FTUS44 KOUN 290520
TAFOUN
TAF
KOUN 290520Z 2906/3006 VRB03KT P6SM SKC
     FM291700 16007KT P6SM SKC=



000
FTUS44 KOUN 290520
TAFWWR
TAF
KWWR 290520Z 2906/3006 20005KT P6SM SKC
     FM291600 19010G15KT P6SM SKC=



000
FTUS44 KOUN 290520
TAFHBR
TAF
KHBR 290520Z 2906/3006 VRB04KT P6SM SKC
     FM291600 17010G15KT P6SM SKC=



000
FTUS44 KOUN 290520
TAFSPS
TAF
KSPS 290520Z 2906/3006 02005KT P6SM SKC
     FM291800 14007KT P6SM SKC=



000
FTUS44 KOUN 282320
TAFPNC
TAF
KPNC 282320Z 2900/2924 VRB04KT P6SM SCT250
     FM291700 18006KT P6SM SKC=



000
FTUS44 KOUN 282320
TAFWWR
TAF
KWWR 282320Z 2900/2924 VRB04KT P6SM SCT250
     FM290600 20005KT P6SM SKC
     FM291600 19010G15KT P6SM SKC=



000
FTUS44 KOUN 282320
TAFHBR
TAF
KHBR 282320Z 2900/2924 06008KT P6SM SCT250
     FM290100 VRB04KT P6SM SKC
     FM291600 17010G15KT P6SM SKC=



000
FTUS44 KOUN 282320
TAFGAG
TAF
KGAG 282320Z 2900/2924 VRB04KT P6SM SCT250
     FM290600 20005KT P6SM SKC
     FM291600 18010G15KT P6SM SKC=



000
FTUS44 KOUN 282320
TAFLAW
TAF
KLAW 282320Z 2900/2924 03004KT P6SM SCT250
     FM291800 15008KT P6SM SKC=



000
FTUS44 KOUN 282320
TAFOUN
TAF
KOUN 282320Z 2900/2924 04004KT P6SM SCT250
     FM291700 17007KT P6SM SKC=



000
FTUS44 KOUN 282320
TAFOKC
TAF
KOKC 282320Z 2900/2924 04004KT P6SM SCT250
     FM291600 17007KT P6SM SKC=



000
FTUS44 KOUN 282320
TAFSPS
TAF
KSPS 282320Z 2900/2924 02004KT P6SM FEW250
     FM291800 14007KT P6SM SKC=



000
FTUS44 KOUN 281734
TAFOKC
TAF
KOKC 281734Z 2818/2918 03010G15KT P6SM SCT200 BKN250
     FM290000 VRB04KT P6SM SCT250
     FM291700 17005KT P6SM SKC=



000
FTUS44 KOUN 281734
TAFGAG
TAF
KGAG 281734Z 2818/2918 VRB04KT P6SM BKN250
     FM290000 VRB04KT P6SM SCT250
     FM291600 18010G15KT P6SM SKC=



000
FTUS44 KOUN 281734
TAFLAW
TAF
KLAW 281734Z 2818/2918 05015G25KT P6SM BKN250
     FM290000 03004KT P6SM SCT250
     FM291700 18007KT P6SM SKC=



000
FTUS44 KOUN 281734
TAFSPS
TAF
KSPS 281734Z 2818/2918 06020G25KT P6SM SCT250
     FM290000 VRB04KT P6SM FEW250
     FM291700 16007KT P6SM SKC=



000
FTUS44 KOUN 281734
TAFHBR
TAF
KHBR 281734Z 2818/2918 07015G22KT P6SM BKN250
     FM290000 03004KT P6SM SCT250
     FM291700 18006KT P6SM SKC=



000
FTUS44 KOUN 281734
TAFPNC
TAF
KPNC 281734Z 2818/2918 03010KT P6SM BKN250
     FM290000 VRB04KT P6SM SCT250
     FM291700 17005KT P6SM SKC=



000
FTUS44 KOUN 281734
TAFOUN
TAF
KOUN 281734Z 2818/2918 03010G15KT P6SM SCT200 BKN250
     FM290000 VRB04KT P6SM SCT250
     FM291700 17005KT P6SM SKC=



000
FTUS44 KOUN 281734
TAFWWR
TAF
KWWR 281734Z 2818/2918 VRB04KT P6SM BKN250
     FM290000 VRB04KT P6SM SCT250
     FM291600 18010G15KT P6SM SKC=



000
FTUS44 KOUN 281120
TAFOKC
TAF
KOKC 281120Z 2812/2912 04011KT P6SM SCT250
     FM290000 01006KT P6SM BKN250
     FM290400 36005KT P6SM SKC=



000
FTUS44 KOUN 281120
TAFLAW
TAF
KLAW 281120Z 2812/2912 03020G28KT P6SM SKC
     FM281600 03015G23KT P6SM BKN250
     FM282200 02011KT P6SM SCT250=



000
FTUS44 KOUN 281120
TAFOUN
TAF
KOUN 281120Z 2812/2912 03010KT P6SM SCT250
     FM290000 01006KT P6SM BKN250
     FM290400 36005KT P6SM SKC=



000
FTUS44 KOUN 281120
TAFPNC
TAF
KPNC 281120Z 2812/2912 02007KT P6SM SCT250=



000
FTUS44 KOUN 281120
TAFSPS
TAF
KSPS 281120Z 2812/2912 02017KT P6SM SKC
     FM281700 03013G21KT P6SM SCT250
     FM282200 02008KT P6SM BKN250=



000
FTUS44 KOUN 281120
TAFWWR
TAF
KWWR 281120Z 2812/2912 24004KT P6SM BKN250
     FM281800 02005KT P6SM SCT250=



000
FTUS44 KOUN 281120
TAFGAG
TAF
KGAG 281120Z 2812/2912 26004KT P6SM BKN250
     FM281800 02005KT P6SM SCT250=



000
FTUS44 KOUN 281120
TAFHBR
TAF
KHBR 281120Z 2812/2912 04012KT P6SM SKC
     FM281600 04011KT P6SM BKN250
     FM290000 05007KT P6SM SKC=



000
FTUS44 KOUN 280932 AAA
TAFLAW
TAF AMD
KLAW 280932Z 2810/2906 02015G24KT P6SM FEW060
     FM281500 05010KT P6SM SCT250=



000
FTUS44 KOUN 280931 AAA
TAFSPS
TAF AMD
KSPS 280931Z 2810/2906 02017G25KT P6SM SCT050
     FM281400 04013KT P6SM SCT120
     FM282300 02008KT P6SM BKN120=



000
FTUS44 KOUN 280659 AAA
TAFPNC
TAF AMD
KPNC 280659Z 2807/2906 36010KT P6SM FEW250
     FM290000 18005KT P6SM SKC=



000
FTUS44 KOUN 280521
TAFOUN
TAF
KOUN 280521Z 2806/2906 01008KT P6SM SCT060 SCT120
     FM281200 02012KT P6SM SCT250
     FM290000 03006KT P6SM BKN250=



000
FTUS44 KOUN 280521
TAFSPS
TAF
KSPS 280521Z 2806/2906 02014KT P6SM SCT100 OVC120
     FM281400 04013KT P6SM SCT120
     FM282300 02008KT P6SM BKN120=



000
FTUS44 KOUN 280521
TAFLAW
TAF
KLAW 280521Z 2806/2906 03019G24KT P6SM VCTS BKN100CB OVC120
     FM280800 02013KT P6SM BKN100
     FM281500 05010KT P6SM SCT250=



000
FTUS44 KOUN 280521
TAFPNC
TAF
KPNC 280521Z 2806/2906 36016G25KT P6SM OVC080
     FM281200 02011KT P6SM SCT250
     FM290000 18005KT P6SM SKC=



000
FTUS44 KOUN 280521
TAFWWR
TAF
KWWR 280521Z 2806/2906 34012G17KT P6SM SKC
     FM280900 34008KT P6SM SCT250
     FM290000 18005KT P6SM SKC=



000
FTUS44 KOUN 280521
TAFHBR
TAF
KHBR 280521Z 2806/2906 03013KT P6SM FEW100 SCT120
     FM282200 05007KT P6SM SCT250=



000
FTUS44 KOUN 280521
TAFGAG
TAF
KGAG 280521Z 2806/2906 36014G18KT P6SM SCT250
     FM281000 35008KT P6SM SCT250
     FM290000 18005KT P6SM SKC=



000
FTUS44 KOUN 280521
TAFOKC
TAF
KOKC 280521Z 2806/2906 36010KT P6SM BKN060 OVC110
     FM281200 02012KT P6SM SCT250
     FM290000 03006KT P6SM BKN250=



000
FTUS44 KOUN 280017 AAA
TAFOKC
TAF AMD
KOKC 280017Z 2800/2824 34013KT P6SM FEW080 BKN200 BKN250
     FM281200 02012KT P6SM SCT250=



000
FTUS44 KOUN 272328
TAFHBR
TAF
KHBR 272328Z 2800/2824 01016KT P6SM BKN250
     FM280300 01012KT P6SM SCT250
     FM281800 04011KT P6SM SCT250=



000
FTUS44 KOUN 272328
TAFOUN
TAF
KOUN 272328Z 2800/2824 18006KT P6SM SCT120
     FM280100 36012KT P6SM SCT120 BKN200
     FM281200 02012KT P6SM SCT250=



000
FTUS44 KOUN 272328
TAFGAG
TAF
KGAG 272328Z 2800/2824 02007KT P6SM BKN250=



000
FTUS44 KOUN 272328
TAFPNC
TAF
KPNC 272328Z 2800/2824 36006KT P6SM SCT120 BKN250
     FM281000 02011KT P6SM SCT250=



000
FTUS44 KOUN 272328
TAFWWR
TAF
KWWR 272328Z 2800/2824 35008KT P6SM BKN250=



000
FTUS44 KOUN 272328
TAFOKC
TAF
KOKC 272328Z 2800/2824 20005KT P6SM SCT130 BKN200 BKN250
     FM280030 36012KT P6SM SCT120 BKN200
     FM281200 02012KT P6SM SCT250=



000
FTUS44 KOUN 272328
TAFSPS
TAF
KSPS 272328Z 2800/2824 16011KT P6SM BKN150 BKN250
     FM280200 01016KT P6SM SCT120 BKN200
     FM280900 01011KT P6SM SCT250=



000
FTUS44 KOUN 272328
TAFLAW
TAF
KLAW 272328Z 2800/2824 16009KT P6SM SCT250
     FM280100 02016KT P6SM SCT120 BKN200
     FM280900 01011KT P6SM SCT250=



    US Dept of Commerce
    National Oceanic and Atmospheric Administration
    National Weather Service
    1325 East West Highway
    Silver Spring, MD 20910
    Page Author: NWS Internet Services Team
Disclaimer
Information Quality
Credits
Glossary
Privacy Policy
Freedom of Information Act (FOIA)
About Us
Career Opportunities